Airfield :
LOGIN :

Register | Disclaimer

   EN    FR    IT 

 










Legend :    VFR   Marginal VFR   IFR   Intensive IFR   Very Intensive IFR
Visi :
Ceiling :
>= 8 km
>= 3000ft
5 to 8 km
1000 to 3000 ft
1500m to 5 km
500 to 1000 ft
800 to 1500m
200 to 500 ft
< 800m
< 200 ft
Symbols :   Thunderstorms  Fog  Heavy snow  Heavy precipitations  Wind > 20 kt
SIGMETs :     Misc.  Thunderstorms  Icing  Turbulence  Mountain Waves  Volcanic Ashes






- Airport Elevation : 14 ft
- IATA code : BRE


EDDW - Bremen Neuenland

CURRENT METAR :
  • 161920Z 30019KT 6000 -RA FEW010 BKN038 09/08 Q0997 RERA NOSIG

EXPIRED METARs :
  • 161850Z 30031G45KT 2500 RA SCT012 BKN048 10/09 Q0995 TEMPO 5000 -RA BKN008
  • 161820Z 21030G41KT 9999 BKN048 18/09 Q0992 BECMG 22020G35KT 4000 RA BKN010
  • 161750Z 21027G40KT 9999 BKN042 17/09 Q0992 NOSIG
  • 161720Z 21027G40KT 9999 BKN042 17/09 Q0992 TEMPO 22030G45KT
  • 161650Z 21025G39KT 9999 BKN040 17/09 Q0993 TEMPO 22030G45KT

TAF TAF EDDW
Valid from the 16 at 18:00 until the 17 at 18:00 UTC


161700Z 1618/1718 21025G40KT 9999 BKN030
TEMPO 1618/1620 23030G50KT
TEMPO 1619/1622 3500 RA BKN008
BECMG 1620/1623 25015G25KT
TEMPO 1623/1708 25020G35KT
BECMG 1708/1710 23020G35KT
TEMPO 1709/1715 23025G45KT
BECMG 1716/1718 22015G25KT



MET'MAP, your aeronautical weather chart ! - Copyright ORBIFLY December 2007 - Disclaimer

ORBIFLY MET'MAP TEAM :

Programming & Development : Alexandra Zaïnal
Concept & original design : Baudouin d'Aumeries
Assistance for programming : Marc-Olivier Méhu
Technical & hardware support : Manuel Goepfert

Contact : metmap@orbifly.com




SOURCES & CREDITS :

   NOAA